Terminal Aerodrome Forecast
Issued by NWS

Home | Current Version | Previous Version | Text Only | Print | Product List | Glossary On
Versions: 1 2 3 4 5 6 7 8 9 10 11 12 13 14 15
000
FTUS44 KCRP 291700
TAFALI
TAF
KALI 291731Z 2918/3018 13006KT P6SM SCT025 BKN050
      TEMPO 2918/2920 BKN015
     FM300200 VRB05KT P6SM SCT015 BKN100
     FM301500 17007KT P6SM SCT025=

USA.gov is the U.S. government's official web portal to all federal, state and local government web resources and services.